createdAt,value
2018-03-23T00:00:51.952Z,1.30
2018-03-23T00:03:19.604Z,1.20
2018-03-23T00:05:47.216Z,1.20
2018-03-23T00:08:14.831Z,1.10
2018-03-23T00:10:42.449Z,1.20
2018-03-23T00:13:10.055Z,1.20
2018-03-23T00:15:38.427Z,1.10
2018-03-23T00:18:06.033Z,1.10
2018-03-23T00:20:33.648Z,1.30
2018-03-23T00:23:01.269Z,1.20
2018-03-23T00:25:28.879Z,1.10
2018-03-23T00:27:57.264Z,1.00
2018-03-23T00:30:25.640Z,1.10
2018-03-23T00:32:53.995Z,1.10
2018-03-23T00:35:21.655Z,1.10
2018-03-23T00:37:49.265Z,1.20
2018-03-23T00:40:16.880Z,1.10
2018-03-23T00:42:44.520Z,1.00
2018-03-23T00:45:12.128Z,0.90
2018-03-23T00:47:40.494Z,0.90
2018-03-23T00:50:08.877Z,0.80
2018-03-23T00:52:37.245Z,0.90
2018-03-23T00:55:04.863Z,0.90
2018-03-23T00:57:32.471Z,0.90
2018-03-23T01:00:00.841Z,1.00
2018-03-23T01:02:28.460Z,1.00
2018-03-23T01:04:56.059Z,1.10
2018-03-23T01:07:23.695Z,0.90
2018-03-23T01:09:51.316Z,0.90
2018-03-23T01:12:18.939Z,0.90
2018-03-23T01:14:46.545Z,1.00
2018-03-23T01:17:14.142Z,1.10
2018-03-23T01:19:41.757Z,1.10
2018-03-23T01:22:15.279Z,1.10
2018-03-23T01:24:42.900Z,1.00
2018-03-23T01:27:10.499Z,0.80
2018-03-23T01:29:38.104Z,0.90
2018-03-23T01:32:05.712Z,0.90
2018-03-23T01:34:33.321Z,1.00
2018-03-23T01:37:00.924Z,1.10
2018-03-23T01:39:28.550Z,1.00
2018-03-23T01:41:56.919Z,0.90
2018-03-23T01:44:24.532Z,0.90
2018-03-23T01:46:55.071Z,0.80
2018-03-23T01:49:23.432Z,0.50
2018-03-23T01:51:51.041Z,0.60
2018-03-23T01:54:18.672Z,0.60
2018-03-23T01:56:46.316Z,0.60
2018-03-23T01:59:13.899Z,0.60
2018-03-23T02:01:41.544Z,0.70
2018-03-23T02:04:09.148Z,0.80
2018-03-23T02:06:36.743Z,0.90
2018-03-23T02:09:04.361Z,0.70
2018-03-23T02:11:31.965Z,0.50
2018-03-23T02:13:59.573Z,0.40
2018-03-23T02:16:27.189Z,0.50
2018-03-23T02:18:54.803Z,0.50
2018-03-23T02:21:22.408Z,0.60
2018-03-23T02:23:50.028Z,0.70
2018-03-23T02:26:17.627Z,0.70
2018-03-23T02:28:45.253Z,0.70
2018-03-23T02:31:12.901Z,0.70
2018-03-23T02:33:40.535Z,0.80
2018-03-23T02:36:08.145Z,0.70
2018-03-23T02:38:36.758Z,0.50
2018-03-23T02:41:04.361Z,0.60
2018-03-23T02:43:31.975Z,0.60
2018-03-23T02:45:59.596Z,0.50
2018-03-23T02:48:27.199Z,0.60
2018-03-23T02:50:54.800Z,0.80
2018-03-23T02:53:22.448Z,0.70
2018-03-23T02:55:50.060Z,0.70
2018-03-23T02:58:18.427Z,0.50
2018-03-23T03:00:46.807Z,0.40
2018-03-23T03:03:15.181Z,0.40
2018-03-23T03:05:43.566Z,0.20
2018-03-23T03:08:11.227Z,0.20
2018-03-23T03:10:38.840Z,0.30
2018-03-23T03:13:06.446Z,0.40
2018-03-23T03:15:34.073Z,0.30
2018-03-23T03:18:01.672Z,0.40
2018-03-23T03:20:29.285Z,0.40
2018-03-23T03:22:56.900Z,0.50
2018-03-23T03:25:25.282Z,0.50
2018-03-23T03:27:52.896Z,0.50
2018-03-23T03:30:20.517Z,0.70
2018-03-23T03:32:48.137Z,0.70
2018-03-23T03:35:15.750Z,0.90
2018-03-23T03:37:43.368Z,0.70
2018-03-23T03:40:11.008Z,0.80
2018-03-23T03:42:38.624Z,0.90
2018-03-23T03:45:06.239Z,0.90
2018-03-23T03:47:33.839Z,0.80
2018-03-23T03:50:01.451Z,0.90
2018-03-23T03:52:29.092Z,0.70
2018-03-23T03:54:56.691Z,0.70
2018-03-23T03:57:25.060Z,0.80
2018-03-23T03:59:52.684Z,0.80
2018-03-23T04:02:20.280Z,0.70
2018-03-23T04:04:47.883Z,0.80
2018-03-23T04:07:15.491Z,0.70
2018-03-23T04:09:43.093Z,0.80
2018-03-23T04:12:10.711Z,0.80
2018-03-23T04:14:38.344Z,0.80
2018-03-23T04:17:05.947Z,0.90
2018-03-23T04:19:34.319Z,0.60
2018-03-23T04:22:01.945Z,0.60
2018-03-23T04:24:31.179Z,0.70
2018-03-23T04:26:58.784Z,0.70
2018-03-23T04:29:26.388Z,0.80
2018-03-23T04:31:53.993Z,0.90
2018-03-23T04:34:21.603Z,1.00
2018-03-23T04:36:49.219Z,1.00
2018-03-23T04:39:16.823Z,1.10
2018-03-23T04:41:44.424Z,1.10
2018-03-23T04:44:12.055Z,1.20
2018-03-23T04:46:39.662Z,1.00
2018-03-23T04:49:07.264Z,0.90
2018-03-23T04:51:34.899Z,0.90
2018-03-23T04:54:02.520Z,1.00
2018-03-23T04:56:30.922Z,1.00
2018-03-23T04:58:58.552Z,1.00
2018-03-23T05:01:26.944Z,1.00
2018-03-23T05:03:55.326Z,1.10
2018-03-23T05:06:22.952Z,1.10
2018-03-23T05:08:50.553Z,0.90
2018-03-23T05:11:18.156Z,0.90
2018-03-23T05:13:45.775Z,0.90
2018-03-23T05:16:13.370Z,1.00
2018-03-23T05:18:40.971Z,1.00
2018-03-23T05:21:09.348Z,1.10
2018-03-23T05:23:37.720Z,1.10
2018-03-23T05:26:05.315Z,1.10
2018-03-23T05:28:32.936Z,0.90
2018-03-23T05:31:00.528Z,1.10
2018-03-23T05:33:28.128Z,1.10
2018-03-23T05:35:55.761Z,1.10
2018-03-23T05:38:23.363Z,1.00
2018-03-23T05:40:50.976Z,1.10
2018-03-23T05:43:18.629Z,1.10
2018-03-23T05:45:46.260Z,1.10
2018-03-23T05:48:13.865Z,1.10
2018-03-23T05:50:41.492Z,1.10
2018-03-23T05:53:09.101Z,1.00
2018-03-23T05:55:36.708Z,1.10
2018-03-23T05:58:04.336Z,1.20
2018-03-23T06:00:31.947Z,1.20
2018-03-23T06:02:59.551Z,1.30
2018-03-23T06:05:27.195Z,1.30
2018-03-23T06:07:54.799Z,1.30
2018-03-23T06:10:22.416Z,1.30
2018-03-23T06:12:50.046Z,1.40
2018-03-23T06:15:17.652Z,1.40
2018-03-23T06:17:45.263Z,1.40
2018-03-23T06:20:13.665Z,1.50
2018-03-23T06:22:41.292Z,1.50
2018-03-23T06:25:09.696Z,1.40
2018-03-23T06:27:37.325Z,1.40
2018-03-23T06:30:04.945Z,1.40
2018-03-23T06:32:32.554Z,1.40
2018-03-23T06:35:00.168Z,1.30
2018-03-23T06:37:27.778Z,1.40
2018-03-23T06:39:55.384Z,1.50
2018-03-23T06:42:23.008Z,1.40
2018-03-23T06:44:51.400Z,1.50
2018-03-23T06:47:19.001Z,1.50
2018-03-23T06:49:46.625Z,1.40
2018-03-23T06:52:14.228Z,1.30
2018-03-23T06:54:41.835Z,1.40
2018-03-23T06:57:09.481Z,1.40
2018-03-23T06:59:37.855Z,1.50
2018-03-23T07:02:07.213Z,1.50
2018-03-23T07:04:34.828Z,1.60
2018-03-23T07:07:03.216Z,1.60
2018-03-23T07:09:30.831Z,1.60
2018-03-23T07:11:58.480Z,1.50
2018-03-23T07:14:26.100Z,1.70
2018-03-23T07:16:53.700Z,1.70
2018-03-23T07:19:21.355Z,1.60
2018-03-23T07:21:48.957Z,1.70
2018-03-23T07:24:16.566Z,1.80
2018-03-23T07:26:44.183Z,1.80
2018-03-23T07:29:11.787Z,1.80
2018-03-23T07:31:39.439Z,1.80
2018-03-23T07:34:07.056Z,1.90
2018-03-23T07:36:35.433Z,2.00
2018-03-23T07:39:03.831Z,2.00
2018-03-23T07:41:31.458Z,2.00
2018-03-23T07:43:59.072Z,2.00
2018-03-23T07:46:26.684Z,2.00
2018-03-23T07:48:54.320Z,2.00
2018-03-23T07:51:21.926Z,2.00
2018-03-23T07:53:49.547Z,2.10
2018-03-23T07:56:17.196Z,2.00
2018-03-23T07:58:45.576Z,2.00
2018-03-23T08:01:13.221Z,2.00
2018-03-23T08:03:40.836Z,2.10
2018-03-23T08:06:09.232Z,2.10
2018-03-23T08:08:37.602Z,2.10
2018-03-23T08:11:05.980Z,2.00
2018-03-23T08:13:34.344Z,2.00
2018-03-23T08:16:01.964Z,2.00
2018-03-23T08:18:29.608Z,2.10
2018-03-23T08:20:57.234Z,2.10
2018-03-23T08:23:24.840Z,2.10
2018-03-23T08:25:52.451Z,2.10
2018-03-23T08:28:20.062Z,2.10
2018-03-23T08:30:47.672Z,2.20
2018-03-23T08:33:16.057Z,2.30
2018-03-23T08:35:43.666Z,2.30
2018-03-23T08:38:11.284Z,2.30
2018-03-23T08:40:39.680Z,2.40
2018-03-23T08:43:07.287Z,2.40
2018-03-23T08:45:34.897Z,2.40
2018-03-23T08:48:02.569Z,2.50
2018-03-23T08:50:30.916Z,2.50
2018-03-23T08:52:59.288Z,2.60
2018-03-23T08:55:27.668Z,2.70
2018-03-23T08:57:55.294Z,2.70
2018-03-23T09:00:22.897Z,2.80
2018-03-23T09:02:51.271Z,2.80
2018-03-23T09:05:19.640Z,2.90
2018-03-23T09:07:47.252Z,2.90
2018-03-23T09:10:14.864Z,2.90
2018-03-23T09:12:42.483Z,2.90
2018-03-23T09:15:10.096Z,2.90
2018-03-23T09:17:37.732Z,2.90
2018-03-23T09:20:05.334Z,2.80
2018-03-23T09:22:32.936Z,2.80
2018-03-23T09:25:00.581Z,2.80
2018-03-23T09:27:28.183Z,2.90
2018-03-23T09:29:56.564Z,2.80
2018-03-23T09:32:24.964Z,2.90
2018-03-23T09:34:53.723Z,2.90
2018-03-23T09:37:21.349Z,3.00
2018-03-23T09:39:49.008Z,3.10
2018-03-23T09:42:16.636Z,3.10
2018-03-23T09:44:44.277Z,3.20
2018-03-23T09:47:12.667Z,3.20
2018-03-23T09:49:40.308Z,3.20
2018-03-23T09:52:07.916Z,3.20
2018-03-23T09:54:35.548Z,3.10
2018-03-23T09:57:03.160Z,2.90
2018-03-23T09:59:30.809Z,3.00
2018-03-23T10:01:58.419Z,2.80
2018-03-23T10:04:26.788Z,2.90
2018-03-23T10:06:54.397Z,2.90
2018-03-23T10:09:22.036Z,3.00
2018-03-23T10:11:50.400Z,3.00
2018-03-23T10:14:18.783Z,2.90
2018-03-23T10:16:47.155Z,3.00
2018-03-23T10:19:15.526Z,3.00
2018-03-23T10:21:43.911Z,3.00
2018-03-23T10:24:11.548Z,3.00
2018-03-23T10:26:39.156Z,3.00
2018-03-23T10:29:07.651Z,3.00
2018-03-23T10:31:35.272Z,3.00
2018-03-23T10:34:03.636Z,3.00
2018-03-23T10:36:31.272Z,3.00
2018-03-23T10:38:58.880Z,3.00
2018-03-23T10:41:27.260Z,3.00
2018-03-23T10:43:55.662Z,3.00
2018-03-23T10:46:23.319Z,3.00
2018-03-23T10:48:50.927Z,3.10
2018-03-23T10:51:18.542Z,3.00
2018-03-23T10:53:46.944Z,3.20
2018-03-23T10:56:14.539Z,3.10
2018-03-23T10:58:42.154Z,3.00
2018-03-23T11:01:30.456Z,3.00
2018-03-23T11:03:58.824Z,2.80
2018-03-23T11:06:26.424Z,2.80
2018-03-23T11:08:55.018Z,2.70
2018-03-23T11:11:22.636Z,2.60
2018-03-23T11:13:51.003Z,2.50
2018-03-23T11:16:18.632Z,2.50
2018-03-23T11:18:46.236Z,2.60
2018-03-23T11:21:14.649Z,2.50
2018-03-23T11:23:42.260Z,2.50
2018-03-23T11:26:09.864Z,2.40
2018-03-23T11:28:37.460Z,2.30
2018-03-23T11:31:05.084Z,2.30
2018-03-23T11:33:32.700Z,2.10
2018-03-23T11:36:00.308Z,2.10
2018-03-23T11:38:27.927Z,2.00
2018-03-23T11:40:55.532Z,2.10
2018-03-23T11:43:23.140Z,2.00
2018-03-23T11:45:50.772Z,1.90
2018-03-23T11:48:18.368Z,2.00
2018-03-23T11:50:46.042Z,2.00
2018-03-23T11:53:13.621Z,2.00
2018-03-23T11:55:41.216Z,1.90
2018-03-23T11:58:08.832Z,1.90
2018-03-23T12:00:37.228Z,1.90
2018-03-23T12:03:04.870Z,1.90
2018-03-23T12:05:32.492Z,1.90
2018-03-23T12:08:00.104Z,2.00
2018-03-23T12:10:27.724Z,2.00
2018-03-23T12:12:55.335Z,2.00
2018-03-23T12:15:22.952Z,2.00
2018-03-23T12:17:50.576Z,1.90
2018-03-23T12:20:18.176Z,2.00
2018-03-23T12:22:46.562Z,2.10
2018-03-23T12:25:14.176Z,2.10
2018-03-23T12:27:41.796Z,2.10
2018-03-23T12:30:09.436Z,2.20
2018-03-23T12:32:37.807Z,2.10
2018-03-23T12:35:05.413Z,2.10
2018-03-23T12:37:33.034Z,2.00
2018-03-23T12:40:00.656Z,2.10
2018-03-23T12:42:28.266Z,2.00
2018-03-23T12:44:56.654Z,2.10
2018-03-23T12:47:25.028Z,2.10
2018-03-23T12:49:53.403Z,2.00
2018-03-23T12:52:21.783Z,2.00
2018-03-23T12:54:50.144Z,2.10
2018-03-23T12:57:17.743Z,2.10
2018-03-23T12:59:45.360Z,2.00
2018-03-23T13:02:12.964Z,1.90
2018-03-23T13:04:40.582Z,2.00
2018-03-23T13:07:08.985Z,1.90
2018-03-23T13:09:37.347Z,1.90
2018-03-23T13:12:05.714Z,1.80
2018-03-23T13:14:34.104Z,1.80
2018-03-23T13:17:02.476Z,1.80
2018-03-23T13:19:30.067Z,1.80
2018-03-23T13:21:57.684Z,1.70
2018-03-23T13:24:25.317Z,1.80
2018-03-23T13:26:52.908Z,1.90
2018-03-23T13:29:20.512Z,1.90
2018-03-23T13:31:48.120Z,1.90
2018-03-23T13:34:15.752Z,1.70
2018-03-23T13:36:43.374Z,1.60
2018-03-23T13:39:11.756Z,1.80
2018-03-23T13:41:39.364Z,1.70
2018-03-23T13:44:06.976Z,1.70
2018-03-23T13:46:34.604Z,1.70
2018-03-23T13:49:02.244Z,1.80
2018-03-23T13:51:29.851Z,1.80
2018-03-23T13:53:57.455Z,1.80
2018-03-23T13:56:25.051Z,1.80
2018-03-23T13:58:58.372Z,1.70
2018-03-23T14:01:31.648Z,1.80
2018-03-23T14:04:00.036Z,1.90
2018-03-23T14:06:27.644Z,1.90
2018-03-23T14:08:55.253Z,1.70
2018-03-23T14:11:23.648Z,1.80
2018-03-23T14:13:51.277Z,1.80
2018-03-23T14:16:18.892Z,1.70
2018-03-23T14:18:46.508Z,1.80
2018-03-23T14:21:14.876Z,1.70
2018-03-23T14:23:42.475Z,1.80
2018-03-23T14:26:10.083Z,1.80
2018-03-23T14:28:37.691Z,1.80
2018-03-23T14:31:05.299Z,1.80
2018-03-23T14:33:32.916Z,1.70
2018-03-23T14:36:00.554Z,1.70
2018-03-23T14:38:28.184Z,1.70
2018-03-23T14:40:55.834Z,1.70
2018-03-23T14:43:23.427Z,1.70
2018-03-23T14:45:51.040Z,1.70
2018-03-23T14:48:18.656Z,1.80
2018-03-23T14:50:47.024Z,1.80
2018-03-23T14:53:14.628Z,1.80
2018-03-23T14:55:42.240Z,1.80
2018-03-23T14:58:09.872Z,1.90
2018-03-23T15:00:37.501Z,1.90
2018-03-23T15:03:05.120Z,2.00
2018-03-23T15:05:32.728Z,2.00
2018-03-23T15:08:00.335Z,1.90
2018-03-23T15:10:27.935Z,2.00
2018-03-23T15:12:55.539Z,2.00
2018-03-23T15:15:23.144Z,2.00
2018-03-23T15:17:51.528Z,2.00
2018-03-23T15:20:19.896Z,2.10
2018-03-23T15:22:48.264Z,2.10
2018-03-23T15:25:16.636Z,2.10
2018-03-23T15:27:44.236Z,2.10
2018-03-23T15:30:11.832Z,2.10
2018-03-23T15:32:39.458Z,2.20
2018-03-23T15:35:07.084Z,2.20
2018-03-23T15:37:35.476Z,2.30
2018-03-23T15:40:03.859Z,2.30
2018-03-23T15:42:32.260Z,2.30
2018-03-23T15:44:59.865Z,2.30
2018-03-23T15:47:27.476Z,2.30
2018-03-23T15:49:55.067Z,2.20
2018-03-23T15:52:22.684Z,2.30
2018-03-23T15:54:51.100Z,2.30
2018-03-23T15:57:18.704Z,2.30
2018-03-23T15:59:47.063Z,2.30
2018-03-23T16:02:14.680Z,2.30
2018-03-23T16:04:42.304Z,2.30
2018-03-23T16:07:10.668Z,2.30
2018-03-23T16:09:38.318Z,2.30
2018-03-23T16:12:05.919Z,2.30
2018-03-23T16:14:33.536Z,2.30
2018-03-23T16:17:02.004Z,2.30
2018-03-23T16:19:29.624Z,2.30
2018-03-23T16:21:57.229Z,2.20
2018-03-23T16:24:24.844Z,2.20
2018-03-23T16:26:52.442Z,2.20
2018-03-23T16:29:20.036Z,2.20
2018-03-23T16:31:47.654Z,2.30
2018-03-23T16:34:15.248Z,2.20
2018-03-23T16:36:43.624Z,2.20
2018-03-23T16:39:11.295Z,2.20
2018-03-23T16:41:38.894Z,2.30
2018-03-23T16:44:06.492Z,2.20
2018-03-23T16:46:34.119Z,2.20
2018-03-23T16:49:01.717Z,2.30
2018-03-23T16:51:29.336Z,2.20
2018-03-23T16:53:57.198Z,2.30
2018-03-23T16:56:24.792Z,2.20
2018-03-23T16:58:52.401Z,2.30
2018-03-23T17:01:20.763Z,2.20
2018-03-23T17:03:48.370Z,2.20
2018-03-23T17:06:15.975Z,2.20
2018-03-23T17:08:43.579Z,2.20
2018-03-23T17:11:11.186Z,2.20
2018-03-23T17:13:38.795Z,2.10
2018-03-23T17:16:06.387Z,2.10
2018-03-23T17:18:33.991Z,2.20
2018-03-23T17:21:02.535Z,2.20
2018-03-23T17:23:30.144Z,2.10
2018-03-23T17:25:57.752Z,2.20
2018-03-23T17:28:25.404Z,2.20
2018-03-23T17:30:53.009Z,2.20
2018-03-23T17:33:20.633Z,2.20
2018-03-23T17:35:48.244Z,2.20
2018-03-23T17:38:15.847Z,2.20
2018-03-23T17:40:43.447Z,2.20
2018-03-23T17:43:11.056Z,2.20
2018-03-23T17:45:38.668Z,2.20
2018-03-23T17:48:06.300Z,2.20
2018-03-23T17:50:33.920Z,2.20
2018-03-23T17:53:01.540Z,2.20
2018-03-23T17:55:29.156Z,2.10
2018-03-23T17:57:56.798Z,2.10
2018-03-23T18:00:24.432Z,2.10
2018-03-23T18:02:52.049Z,2.10
2018-03-23T18:05:19.719Z,2.10
2018-03-23T18:07:47.342Z,2.20
2018-03-23T18:10:14.972Z,2.10
2018-03-23T18:12:42.612Z,2.20
2018-03-23T18:15:10.254Z,2.10
2018-03-23T18:17:37.869Z,2.20
2018-03-23T18:20:05.500Z,2.20
2018-03-23T18:22:33.108Z,2.20
2018-03-23T18:25:00.714Z,2.10
2018-03-23T18:27:28.340Z,2.20
2018-03-23T18:29:55.956Z,2.10
2018-03-23T18:32:23.589Z,2.20
2018-03-23T18:34:51.276Z,2.20
2018-03-23T18:37:18.880Z,2.20
2018-03-23T18:39:46.531Z,2.20
2018-03-23T18:42:14.195Z,2.20
2018-03-23T18:44:41.816Z,2.20
2018-03-23T18:47:09.428Z,2.20
2018-03-23T18:49:37.051Z,2.20
2018-03-23T18:52:05.429Z,2.30
2018-03-23T18:54:33.824Z,2.20
2018-03-23T18:57:02.238Z,2.30
2018-03-23T18:59:29.848Z,2.30
2018-03-23T19:01:58.238Z,2.20
2018-03-23T19:04:26.628Z,2.20
2018-03-23T19:06:54.262Z,2.20
2018-03-23T19:09:21.880Z,2.20
2018-03-23T19:11:49.577Z,2.20
2018-03-23T19:14:17.183Z,2.20
2018-03-23T19:16:44.804Z,2.20
2018-03-23T19:19:12.432Z,2.20
2018-03-23T19:21:40.055Z,2.10
2018-03-23T19:24:07.666Z,2.20
2018-03-23T19:26:35.284Z,2.20
2018-03-23T19:29:02.902Z,2.10
2018-03-23T19:31:30.556Z,2.10
2018-03-23T19:33:58.181Z,2.10
2018-03-23T19:36:25.784Z,2.00
2018-03-23T19:38:53.400Z,2.00
2018-03-23T19:41:21.057Z,2.00
2018-03-23T19:43:48.660Z,1.90
2018-03-23T19:46:16.321Z,2.00
2018-03-23T19:48:43.948Z,2.00
2018-03-23T19:51:11.556Z,2.00
2018-03-23T19:53:39.924Z,2.10
2018-03-23T19:56:07.593Z,2.00
2018-03-23T19:58:35.979Z,2.10
2018-03-23T20:01:04.362Z,2.10
2018-03-23T20:03:32.040Z,2.10
2018-03-23T20:05:59.654Z,2.10
2018-03-23T20:08:27.264Z,2.10
2018-03-23T20:10:54.901Z,2.00
2018-03-23T20:13:24.047Z,2.10
2018-03-23T20:15:51.647Z,2.10
2018-03-23T20:18:21.818Z,2.00
2018-03-23T20:20:54.989Z,2.00
2018-03-23T20:23:22.604Z,2.00
2018-03-23T20:25:50.220Z,2.10
2018-03-23T20:28:23.549Z,2.10
2018-03-23T20:30:51.245Z,2.00
2018-03-23T20:33:18.844Z,2.10
2018-03-23T20:35:46.460Z,2.10
2018-03-23T20:38:14.076Z,2.10
2018-03-23T20:40:41.683Z,2.20
2018-03-23T20:43:10.067Z,2.20
2018-03-23T20:45:37.696Z,2.20
2018-03-23T20:48:05.311Z,2.20
2018-03-23T20:50:33.716Z,2.10
2018-03-23T20:53:01.343Z,2.10
2018-03-23T20:55:28.946Z,2.20
2018-03-23T20:57:56.608Z,2.10
2018-03-23T21:00:24.220Z,2.10
2018-03-23T21:02:52.592Z,2.20
2018-03-23T21:05:20.257Z,2.20
2018-03-23T21:07:47.876Z,2.10
2018-03-23T21:10:15.542Z,2.10
2018-03-23T21:12:43.173Z,2.10
2018-03-23T21:15:10.771Z,2.20
2018-03-23T21:17:38.380Z,2.20
2018-03-23T21:20:06.025Z,2.20
2018-03-23T21:22:33.649Z,2.20
2018-03-23T21:25:01.259Z,2.20
2018-03-23T21:27:28.875Z,2.10
2018-03-23T21:29:56.479Z,2.10
2018-03-23T21:32:24.083Z,2.10
2018-03-23T21:34:51.717Z,2.10
2018-03-23T21:37:19.320Z,2.20
2018-03-23T21:39:46.948Z,2.10
2018-03-23T21:42:14.602Z,2.10
2018-03-23T21:44:42.199Z,2.20
2018-03-23T21:47:09.806Z,2.20
2018-03-23T21:49:38.212Z,2.20
2018-03-23T21:52:05.839Z,2.20
2018-03-23T21:54:33.444Z,2.30
2018-03-23T21:57:01.056Z,2.30
2018-03-23T21:59:28.656Z,2.30
2018-03-23T22:01:56.307Z,2.20
2018-03-23T22:04:23.934Z,2.30
2018-03-23T22:06:51.539Z,2.20
2018-03-23T22:09:19.181Z,2.20
2018-03-23T22:11:46.800Z,2.30
2018-03-23T22:14:14.429Z,2.30
2018-03-23T22:16:42.035Z,2.40
2018-03-23T22:19:09.663Z,2.40
2018-03-23T22:21:37.284Z,2.40
2018-03-23T22:24:04.901Z,2.30
2018-03-23T22:26:33.303Z,2.30
2018-03-23T22:29:00.917Z,2.20
2018-03-23T22:31:28.569Z,2.30
2018-03-23T22:33:56.190Z,2.20
2018-03-23T22:36:23.792Z,2.20
2018-03-23T22:38:51.400Z,2.20
2018-03-23T22:41:19.032Z,2.20
2018-03-23T22:43:46.642Z,2.20
2018-03-23T22:46:14.244Z,2.30
2018-03-23T22:48:41.865Z,2.20
2018-03-23T22:51:09.481Z,2.20
2018-03-23T22:53:37.852Z,2.20
2018-03-23T22:56:06.232Z,2.20
2018-03-23T22:58:33.841Z,2.20
2018-03-23T23:01:01.453Z,2.30
2018-03-23T23:03:29.849Z,2.20
2018-03-23T23:05:57.475Z,2.20
2018-03-23T23:08:25.884Z,2.20
2018-03-23T23:10:53.500Z,2.20
2018-03-23T23:13:21.131Z,2.20
2018-03-23T23:15:48.737Z,2.20
2018-03-23T23:18:16.363Z,2.20
2018-03-23T23:20:43.979Z,2.20
2018-03-23T23:23:12.359Z,2.10
2018-03-23T23:25:40.756Z,2.20
2018-03-23T23:28:08.360Z,2.20
2018-03-23T23:30:35.992Z,2.20
2018-03-23T23:33:03.640Z,2.20
2018-03-23T23:35:31.247Z,2.20
2018-03-23T23:37:58.860Z,2.20
2018-03-23T23:40:26.502Z,2.20
2018-03-23T23:42:54.113Z,2.20
2018-03-23T23:45:21.715Z,2.20
2018-03-23T23:47:50.107Z,2.20
2018-03-23T23:50:17.713Z,2.20
2018-03-23T23:52:45.316Z,2.10
2018-03-23T23:55:14.448Z,2.30
2018-03-23T23:57:42.356Z,2.30
